sensor_id;sensor_type;location;lat;lon;timestamp;pressure;altitude;pressure_sealevel;temperature;humidity
13867;BME280;7003;46.982;15.248;2023-09-08T00:01:01;97881.50;;;13.59;100.00
13867;BME280;7003;46.982;15.248;2023-09-08T00:03:32;97883.25;;;13.55;100.00
13867;BME280;7003;46.982;15.248;2023-09-08T00:06:03;97883.38;;;13.58;100.00
13867;BME280;7003;46.982;15.248;2023-09-08T00:08:30;97879.09;;;13.45;100.00
13867;BME280;7003;46.982;15.248;2023-09-08T00:10:58;97884.00;;;13.34;100.00
13867;BME280;7003;46.982;15.248;2023-09-08T00:13:25;97878.94;;;13.41;100.00
13867;BME280;7003;46.982;15.248;2023-09-08T00:15:54;97882.72;;;13.40;100.00
13867;BME280;7003;46.982;15.248;2023-09-08T00:18:25;97872.28;;;13.27;100.00
13867;BME280;7003;46.982;15.248;2023-09-08T00:20:53;97871.41;;;13.14;100.00
13867;BME280;7003;46.982;15.248;2023-09-08T00:23:21;97875.72;;;13.27;100.00
13867;BME280;7003;46.982;15.248;2023-09-08T00:25:51;97868.88;;;13.18;100.00
13867;BME280;7003;46.982;15.248;2023-09-08T00:28:22;97863.75;;;13.04;100.00
13867;BME280;7003;46.982;15.248;2023-09-08T00:30:51;97854.75;;;13.08;100.00
13867;BME280;7003;46.982;15.248;2023-09-08T00:33:18;97861.66;;;13.09;100.00
13867;BME280;7003;46.982;15.248;2023-09-08T00:35:48;97853.31;;;13.20;100.00
13867;BME280;7003;46.982;15.248;2023-09-08T00:38:19;97861.03;;;13.13;100.00
13867;BME280;7003;46.982;15.248;2023-09-08T00:40:46;97863.09;;;13.16;100.00
13867;BME280;7003;46.982;15.248;2023-09-08T00:43:16;97861.03;;;13.13;100.00
13867;BME280;7003;46.982;15.248;2023-09-08T00:45:43;97850.97;;;13.09;100.00
13867;BME280;7003;46.982;15.248;2023-09-08T00:48:12;97851.81;;;13.01;100.00
13867;BME280;7003;46.982;15.248;2023-09-08T00:50:42;97845.53;;;13.06;100.00
13867;BME280;7003;46.982;15.248;2023-09-08T00:53:16;97844.59;;;13.02;100.00
13867;BME280;7003;46.982;15.248;2023-09-08T00:55:47;97837.97;;;13.08;100.00
13867;BME280;7003;46.982;15.248;2023-09-08T00:58:17;97831.56;;;13.00;100.00
13867;BME280;7003;46.982;15.248;2023-09-08T01:00:45;97833.38;;;13.08;100.00
13867;BME280;7003;46.982;15.248;2023-09-08T01:03:12;97835.75;;;13.10;100.00
13867;BME280;7003;46.982;15.248;2023-09-08T01:05:43;97839.50;;;13.09;100.00
13867;BME280;7003;46.982;15.248;2023-09-08T01:08:15;97837.97;;;13.08;100.00
13867;BME280;7003;46.982;15.248;2023-09-08T01:10:45;97844.84;;;13.09;100.00
13867;BME280;7003;46.982;15.248;2023-09-08T01:13:16;97844.41;;;13.07;100.00
13867;BME280;7003;46.982;15.248;2023-09-08T01:15:43;97843.94;;;13.05;100.00
13867;BME280;7003;46.982;15.248;2023-09-08T01:18:10;97841.38;;;13.17;100.00
13867;BME280;7003;46.982;15.248;2023-09-08T01:21:02;97839.06;;;13.16;100.00
13867;BME280;7003;46.982;15.248;2023-09-08T01:23:42;97833.81;;;13.19;100.00
13867;BME280;7003;46.982;15.248;2023-09-08T01:26:17;97840.47;;;13.13;100.00
13867;BME280;7003;46.982;15.248;2023-09-08T01:28:49;97837.03;;;13.04;100.00
13867;BME280;7003;46.982;15.248;2023-09-08T01:31:18;97831.44;;;12.97;100.00
13867;BME280;7003;46.982;15.248;2023-09-08T01:33:48;97835.09;;;12.92;100.00
13867;BME280;7003;46.982;15.248;2023-09-08T01:36:17;97836.38;;;12.78;100.00
13867;BME280;7003;46.982;15.248;2023-09-08T01:38:46;97826.91;;;12.59;100.00
13867;BME280;7003;46.982;15.248;2023-09-08T01:41:14;97826.63;;;12.52;100.00
13867;BME280;7003;46.982;15.248;2023-09-08T01:43:42;97827.44;;;12.44;100.00
13867;BME280;7003;46.982;15.248;2023-09-08T01:46:13;97823.28;;;12.26;100.00
13867;BME280;7003;46.982;15.248;2023-09-08T01:48:40;97828.56;;;12.34;100.00
13867;BME280;7003;46.982;15.248;2023-09-08T01:51:09;97827.97;;;12.29;100.00
13867;BME280;7003;46.982;15.248;2023-09-08T01:53:37;97827.19;;;12.28;100.00
13867;BME280;7003;46.982;15.248;2023-09-08T01:56:06;97830.34;;;12.30;100.00
13867;BME280;7003;46.982;15.248;2023-09-08T01:58:36;97829.19;;;12.40;100.00
13867;BME280;7003;46.982;15.248;2023-09-08T02:01:03;97830.97;;;12.27;100.00
13867;BME280;7003;46.982;15.248;2023-09-08T02:03:36;97833.31;;;12.29;100.00
13867;BME280;7003;46.982;15.248;2023-09-08T02:06:03;97833.31;;;12.29;100.00
13867;BME280;7003;46.982;15.248;2023-09-08T02:08:31;97835.19;;;12.28;100.00
13867;BME280;7003;46.982;15.248;2023-09-08T02:11:01;97829.53;;;12.30;100.00
13867;BME280;7003;46.982;15.248;2023-09-08T02:13:31;97823.75;;;12.28;100.00
13867;BME280;7003;46.982;15.248;2023-09-08T02:16:00;97829.38;;;12.35;100.00
13867;BME280;7003;46.982;15.248;2023-09-08T02:18:28;97819.00;;;12.33;100.00
13867;BME280;7003;46.982;15.248;2023-09-08T02:20:55;97820.13;;;12.24;100.00
13867;BME280;7003;46.982;15.248;2023-09-08T02:23:24;97822.38;;;12.13;100.00
13867;BME280;7003;46.982;15.248;2023-09-08T02:25:51;97816.44;;;12.08;100.00
13867;BME280;7003;46.982;15.248;2023-09-08T02:28:21;97814.22;;;12.01;100.00
13867;BME280;7003;46.982;15.248;2023-09-08T02:30:53;97822.88;;;12.07;100.00
13867;BME280;7003;46.982;15.248;2023-09-08T02:33:22;97818.75;;;12.09;100.00
13867;BME280;7003;46.982;15.248;2023-09-08T02:35:49;97823.66;;;12.07;100.00
13867;BME280;7003;46.982;15.248;2023-09-08T02:38:19;97829.59;;;12.13;100.00
13867;BME280;7003;46.982;15.248;2023-09-08T02:40:46;97831.94;;;12.14;100.00
13867;BME280;7003;46.982;15.248;2023-09-08T02:43:13;97824.25;;;12.13;100.00
13867;BME280;7003;46.982;15.248;2023-09-08T02:45:40;97830.22;;;12.10;100.00
13867;BME280;7003;46.982;15.248;2023-09-08T02:48:08;97828.81;;;12.04;100.00
13867;BME280;7003;46.982;15.248;2023-09-08T02:50:39;97823.94;;;12.14;100.00
13867;BME280;7003;46.982;15.248;2023-09-08T02:53:06;97824.28;;;11.95;100.00
13867;BME280;7003;46.982;15.248;2023-09-08T02:55:33;97827.13;;;11.90;100.00
13867;BME280;7003;46.982;15.248;2023-09-08T02:58:03;97826.03;;;11.91;100.00
13867;BME280;7003;46.982;15.248;2023-09-08T03:00:32;97823.81;;;11.85;100.00
13867;BME280;7003;46.982;15.248;2023-09-08T03:03:02;97830.56;;;12.00;100.00
13867;BME280;7003;46.982;15.248;2023-09-08T03:05:33;97820.22;;;11.89;100.00
13867;BME280;7003;46.982;15.248;2023-09-08T03:08:04;97825.69;;;11.93;100.00
13867;BME280;7003;46.982;15.248;2023-09-08T03:10:33;97825.69;;;11.93;100.00
13867;BME280;7003;46.982;15.248;2023-09-08T03:13:02;97825.75;;;11.84;100.00
13867;BME280;7003;46.982;15.248;2023-09-08T03:15:34;97820.72;;;11.83;100.00
13867;BME280;7003;46.982;15.248;2023-09-08T03:18:04;97821.03;;;11.81;100.00
13867;BME280;7003;46.982;15.248;2023-09-08T03:20:35;97814.59;;;11.74;100.00
13867;BME280;7003;46.982;15.248;2023-09-08T03:23:06;97812.09;;;11.77;100.00
13867;BME280;7003;46.982;15.248;2023-09-08T03:25:34;97814.44;;;11.79;100.00
13867;BME280;7003;46.982;15.248;2023-09-08T03:28:03;97815.22;;;11.79;100.00
13867;BME280;7003;46.982;15.248;2023-09-08T03:30:30;97816.00;;;11.80;100.00
13867;BME280;7003;46.982;15.248;2023-09-08T03:32:58;97816.66;;;11.77;100.00
13867;BME280;7003;46.982;15.248;2023-09-08T03:35:28;97814.00;;;11.77;100.00
13867;BME280;7003;46.982;15.248;2023-09-08T03:37:58;97806.44;;;11.79;100.00
13867;BME280;7003;46.982;15.248;2023-09-08T03:40:31;97807.41;;;11.74;100.00
13867;BME280;7003;46.982;15.248;2023-09-08T03:42:58;97808.19;;;11.75;100.00
13867;BME280;7003;46.982;15.248;2023-09-08T03:45:27;97812.72;;;11.74;100.00
13867;BME280;7003;46.982;15.248;2023-09-08T03:47:55;97814.75;;;11.69;100.00
13867;BME280;7003;46.982;15.248;2023-09-08T03:50:23;97814.75;;;11.60;100.00
13867;BME280;7003;46.982;15.248;2023-09-08T03:52:52;97813.19;;;11.59;100.00
13867;BME280;7003;46.982;15.248;2023-09-08T03:55:20;97813.19;;;11.50;100.00
13867;BME280;7003;46.982;15.248;2023-09-08T03:57:48;97820.56;;;11.45;100.00
13867;BME280;7003;46.982;15.248;2023-09-08T04:00:19;97816.94;;;11.49;100.00
13867;BME280;7003;46.982;15.248;2023-09-08T04:02:50;97816.78;;;11.46;100.00
13867;BME280;7003;46.982;15.248;2023-09-08T04:05:21;97815.53;;;11.52;100.00
13867;BME280;7003;46.982;15.248;2023-09-08T04:07:49;97815.38;;;11.57;100.00
13867;BME280;7003;46.982;15.248;2023-09-08T04:10:17;97810.34;;;11.55;100.00
13867;BME280;7003;46.982;15.248;2023-09-08T04:12:49;97815.38;;;11.57;100.00
13867;BME280;7003;46.982;15.248;2023-09-08T04:15:16;97805.63;;;11.70;100.00
13867;BME280;7003;46.982;15.248;2023-09-08T04:17:45;97806.13;;;11.63;100.00
13867;BME280;7003;46.982;15.248;2023-09-08T04:20:13;97811.13;;;11.56;100.00
13867;BME280;7003;46.982;15.248;2023-09-08T04:22:42;97815.06;;;11.67;100.00
13867;BME280;7003;46.982;15.248;2023-09-08T04:25:11;97821.97;;;11.68;100.00
13867;BME280;7003;46.982;15.248;2023-09-08T04:27:39;97821.78;;;11.56;100.00
13867;BME280;7003;46.982;15.248;2023-09-08T04:30:11;97826.66;;;11.54;100.00
13867;BME280;7003;46.982;15.248;2023-09-08T04:32:42;97823.38;;;11.40;100.00
13867;BME280;7003;46.982;15.248;2023-09-08T04:35:11;97822.13;;;11.29;100.00
13867;BME280;7003;46.982;15.248;2023-09-08T04:37:42;97828.22;;;11.46;100.00
13867;BME280;7003;46.982;15.248;2023-09-08T04:40:11;97830.75;;;11.51;100.00
13867;BME280;7003;46.982;15.248;2023-09-08T04:42:42;97821.78;;;11.56;100.00
13867;BME280;7003;46.982;15.248;2023-09-08T04:45:12;97825.56;;;11.55;100.00
13867;BME280;7003;46.982;15.248;2023-09-08T04:47:40;97833.56;;;11.55;100.00
13867;BME280;7003;46.982;15.248;2023-09-08T04:50:09;97829.34;;;11.37;100.00
13867;BME280;7003;46.982;15.248;2023-09-08T04:52:40;97839.34;;;11.40;100.00
13867;BME280;7003;46.982;15.248;2023-09-08T04:55:12;97840.44;;;11.39;100.00
13867;BME280;7003;46.982;15.248;2023-09-08T04:57:43;97836.84;;;11.52;100.00
13867;BME280;7003;46.982;15.248;2023-09-08T05:00:16;97841.41;;;11.60;100.00
13867;BME280;7003;46.982;15.248;2023-09-08T05:02:44;97848.75;;;11.63;100.00
13867;BME280;7003;46.982;15.248;2023-09-08T05:05:12;97846.72;;;11.60;100.00
13867;BME280;7003;46.982;15.248;2023-09-08T05:07:41;97845.31;;;11.63;100.00
13867;BME280;7003;46.982;15.248;2023-09-08T05:10:09;97849.22;;;11.56;100.00
13867;BME280;7003;46.982;15.248;2023-09-08T05:12:37;97849.84;;;11.62;100.00
13867;BME280;7003;46.982;15.248;2023-09-08T05:15:07;97847.50;;;11.52;100.00
13867;BME280;7003;46.982;15.248;2023-09-08T05:17:43;97859.09;;;11.65;100.00
13867;BME280;7003;46.982;15.248;2023-09-08T05:20:12;97855.38;;;11.74;100.00
13867;BME280;7003;46.982;15.248;2023-09-08T05:22:40;97852.84;;;11.78;100.00
13867;BME280;7003;46.982;15.248;2023-09-08T05:25:10;97857.38;;;11.77;100.00
13867;BME280;7003;46.982;15.248;2023-09-08T05:27:39;97858.63;;;11.97;100.00
13867;BME280;7003;46.982;15.248;2023-09-08T05:30:11;97857.53;;;12.07;100.00
13867;BME280;7003;46.982;15.248;2023-09-08T05:32:41;97863.16;;;12.14;100.00
13867;BME280;7003;46.982;15.248;2023-09-08T05:35:10;97865.66;;;12.19;100.00
13867;BME280;7003;46.982;15.248;2023-09-08T05:37:40;97864.50;;;12.37;100.00
13867;BME280;7003;46.982;15.248;2023-09-08T05:40:11;97864.66;;;12.32;100.00
13867;BME280;7003;46.982;15.248;2023-09-08T05:42:41;97872.34;;;12.42;100.00
13867;BME280;7003;46.982;15.248;2023-09-08T05:45:10;97860.69;;;12.47;100.00
13867;BME280;7003;46.982;15.248;2023-09-08T05:47:42;97857.34;;;12.67;100.00
13867;BME280;7003;46.982;15.248;2023-09-08T05:50:11;97848.91;;;12.86;100.00
13867;BME280;7003;46.982;15.248;2023-09-08T05:52:41;97856.19;;;13.06;100.00
13867;BME280;7003;46.982;15.248;2023-09-08T05:55:12;97857.88;;;13.40;100.00
13867;BME280;7003;46.982;15.248;2023-09-08T05:57:40;97852.28;;;13.74;100.00
13867;BME280;7003;46.982;15.248;2023-09-08T06:00:09;97855.41;;;14.09;100.00
13867;BME280;7003;46.982;15.248;2023-09-08T06:02:39;97863.94;;;14.36;100.00
13867;BME280;7003;46.982;15.248;2023-09-08T06:05:10;97857.09;;;14.59;100.00
13867;BME280;7003;46.982;15.248;2023-09-08T06:07:39;97857.56;;;14.85;100.00
13867;BME280;7003;46.982;15.248;2023-09-08T06:10:10;97862.56;;;15.11;100.00
13867;BME280;7003;46.982;15.248;2023-09-08T06:12:38;97860.41;;;15.29;100.00
13867;BME280;7003;46.982;15.248;2023-09-08T06:15:07;97865.28;;;15.51;100.00
13867;BME280;7003;46.982;15.248;2023-09-08T06:17:37;97854.53;;;15.75;100.00
13867;BME280;7003;46.982;15.248;2023-09-08T06:20:05;97861.06;;;15.90;100.00
13867;BME280;7003;46.982;15.248;2023-09-08T06:22:34;97860.22;;;16.02;100.00
13867;BME280;7003;46.982;15.248;2023-09-08T06:25:01;97857.91;;;16.16;100.00
13867;BME280;7003;46.982;15.248;2023-09-08T06:27:29;97860.09;;;16.42;100.00
13867;BME280;7003;46.982;15.248;2023-09-08T06:29:57;97851.84;;;16.63;100.00
13867;BME280;7003;46.982;15.248;2023-09-08T06:32:26;97852.19;;;16.77;100.00
13867;BME280;7003;46.982;15.248;2023-09-08T06:34:56;97854.41;;;17.06;100.00
13867;BME280;7003;46.982;15.248;2023-09-08T06:37:24;97861.47;;;17.30;100.00
13867;BME280;7003;46.982;15.248;2023-09-08T06:39:56;97857.66;;;17.50;100.00
13867;BME280;7003;46.982;15.248;2023-09-08T06:42:27;97858.19;;;17.56;100.00
13867;BME280;7003;46.982;15.248;2023-09-08T06:44:58;97853.09;;;17.70;100.00
13867;BME280;7003;46.982;15.248;2023-09-08T06:47:28;97859.41;;;17.78;100.00
13867;BME280;7003;46.982;15.248;2023-09-08T06:49:56;97849.69;;;17.92;100.00
13867;BME280;7003;46.982;15.248;2023-09-08T06:52:26;97856.06;;;17.84;100.00
13867;BME280;7003;46.982;15.248;2023-09-08T06:54:55;97854.53;;;18.02;100.00
13867;BME280;7003;46.982;15.248;2023-09-08T06:57:25;97852.03;;;18.36;100.00
13867;BME280;7003;46.982;15.248;2023-09-08T06:59:56;97856.72;;;18.39;100.00
13867;BME280;7003;46.982;15.248;2023-09-08T07:02:23;97852.66;;;18.71;100.00
13867;BME280;7003;46.982;15.248;2023-09-08T07:04:51;97853.31;;;18.88;100.00
13867;BME280;7003;46.982;15.248;2023-09-08T07:07:19;97857.69;;;18.96;100.00
13867;BME280;7003;46.982;15.248;2023-09-08T07:09:49;97856.53;;;18.97;100.00
13867;BME280;7003;46.982;15.248;2023-09-08T07:12:21;97860.06;;;19.01;100.00
13867;BME280;7003;46.982;15.248;2023-09-08T07:14:51;97854.84;;;19.11;100.00
13867;BME280;7003;46.982;15.248;2023-09-08T07:17:19;97866.69;;;19.33;100.00
13867;BME280;7003;46.982;15.248;2023-09-08T07:19:49;97856.91;;;19.48;100.00
13867;BME280;7003;46.982;15.248;2023-09-08T07:22:19;97847.31;;;19.50;100.00
13867;BME280;7003;46.982;15.248;2023-09-08T07:24:46;97857.44;;;19.60;100.00
13867;BME280;7003;46.982;15.248;2023-09-08T07:27:14;97849.03;;;19.66;100.00
13867;BME280;7003;46.982;15.248;2023-09-08T07:29:45;97853.69;;;19.69;100.00
13867;BME280;7003;46.982;15.248;2023-09-08T07:32:16;97855.19;;;19.96;100.00
13867;BME280;7003;46.982;15.248;2023-09-08T07:34:44;97851.06;;;19.76;100.00
13867;BME280;7003;46.982;15.248;2023-09-08T07:37:12;97845.44;;;19.88;100.00
13867;BME280;7003;46.982;15.248;2023-09-08T07:39:42;97849.84;;;20.03;100.00
13867;BME280;7003;46.982;15.248;2023-09-08T07:42:10;97847.72;;;20.19;100.00
13867;BME280;7003;46.982;15.248;2023-09-08T07:44:37;97843.88;;;20.20;100.00
13867;BME280;7003;46.982;15.248;2023-09-08T07:47:06;97847.38;;;20.24;100.00
13867;BME280;7003;46.982;15.248;2023-09-08T07:49:34;97842.59;;;20.48;100.00
13867;BME280;7003;46.982;15.248;2023-09-08T07:52:02;97835.75;;;20.61;100.00
13867;BME280;7003;46.982;15.248;2023-09-08T07:54:34;97847.13;;;20.84;100.00
13867;BME280;7003;46.982;15.248;2023-09-08T07:57:02;97837.50;;;20.87;100.00
13867;BME280;7003;46.982;15.248;2023-09-08T07:59:29;97840.06;;;21.17;100.00
13867;BME280;7003;46.982;15.248;2023-09-08T08:02:00;97842.44;;;21.25;100.00
13867;BME280;7003;46.982;15.248;2023-09-08T08:04:31;97836.91;;;21.14;100.00
13867;BME280;7003;46.982;15.248;2023-09-08T08:07:01;97831.19;;;21.20;100.00
13867;BME280;7003;46.982;15.248;2023-09-08T08:09:29;97837.28;;;21.09;100.00
13867;BME280;7003;46.982;15.248;2023-09-08T08:12:00;97838.63;;;21.37;100.00
13867;BME280;7003;46.982;15.248;2023-09-08T08:14:29;97840.66;;;21.61;100.00
13867;BME280;7003;46.982;15.248;2023-09-08T08:16:57;97835.00;;;21.95;100.00
13867;BME280;7003;46.982;15.248;2023-09-08T08:19:25;97833.06;;;21.95;100.00
13867;BME280;7003;46.982;15.248;2023-09-08T08:21:54;97830.34;;;21.92;100.00
13867;BME280;7003;46.982;15.248;2023-09-08T08:24:23;97826.84;;;21.80;100.00
13867;BME280;7003;46.982;15.248;2023-09-08T08:26:51;97815.69;;;22.07;100.00
13867;BME280;7003;46.982;15.248;2023-09-08T08:29:19;97823.44;;;22.05;100.00
13867;BME280;7003;46.982;15.248;2023-09-08T08:31:49;97816.91;;;22.27;100.00
13867;BME280;7003;46.982;15.248;2023-09-08T08:34:16;97817.34;;;22.79;100.00
13867;BME280;7003;46.982;15.248;2023-09-08T08:36:47;97811.13;;;22.99;100.00
13867;BME280;7003;46.982;15.248;2023-09-08T08:39:16;97811.06;;;23.24;100.00
13867;BME280;7003;46.982;15.248;2023-09-08T08:41:46;97807.94;;;23.29;100.00
13867;BME280;7003;46.982;15.248;2023-09-08T08:44:15;97808.63;;;23.62;98.36
13867;BME280;7003;46.982;15.248;2023-09-08T08:46:46;97796.47;;;23.91;96.63
13867;BME280;7003;46.982;15.248;2023-09-08T08:49:15;97796.38;;;24.05;89.27
13867;BME280;7003;46.982;15.248;2023-09-08T08:51:44;97795.16;;;24.13;91.20
13867;BME280;7003;46.982;15.248;2023-09-08T08:54:17;97794.47;;;23.99;86.63
13867;BME280;7003;46.982;15.248;2023-09-08T08:56:44;97794.31;;;24.24;93.55
13867;BME280;7003;46.982;15.248;2023-09-08T08:59:13;97792.44;;;24.21;88.77
13867;BME280;7003;46.982;15.248;2023-09-08T09:01:42;97797.06;;;24.24;77.92
13867;BME280;7003;46.982;15.248;2023-09-08T09:04:10;97794.91;;;24.52;76.77
13867;BME280;7003;46.982;15.248;2023-09-08T09:06:41;97792.66;;;24.44;82.45
13867;BME280;7003;46.982;15.248;2023-09-08T09:09:11;97791.53;;;24.38;79.72
13867;BME280;7003;46.982;15.248;2023-09-08T09:11:41;97794.31;;;24.75;78.95
13867;BME280;7003;46.982;15.248;2023-09-08T09:14:12;97796.28;;;24.71;73.00
13867;BME280;7003;46.982;15.248;2023-09-08T09:16:40;97787.78;;;24.69;71.83
13867;BME280;7003;46.982;15.248;2023-09-08T09:19:10;97794.97;;;24.86;71.18
13867;BME280;7003;46.982;15.248;2023-09-08T09:21:47;97793.69;;;25.02;70.71
13867;BME280;7003;46.982;15.248;2023-09-08T09:24:18;97802.03;;;24.84;73.67
13867;BME280;7003;46.982;15.248;2023-09-08T09:26:58;97788.63;;;25.04;86.52
13867;BME280;7003;46.982;15.248;2023-09-08T09:29:27;97785.97;;;24.97;69.21
13867;BME280;7003;46.982;15.248;2023-09-08T09:31:58;97782.09;;;24.94;73.22
13867;BME280;7003;46.982;15.248;2023-09-08T09:34:32;97791.13;;;25.25;74.15
13867;BME280;7003;46.982;15.248;2023-09-08T09:37:04;97784.69;;;25.42;75.11
13867;BME280;7003;46.982;15.248;2023-09-08T09:39:32;97784.81;;;25.69;71.26
13867;BME280;7003;46.982;15.248;2023-09-08T09:42:05;97787.38;;;25.80;65.01
13867;BME280;7003;46.982;15.248;2023-09-08T09:44:32;97777.50;;;25.89;68.49
13867;BME280;7003;46.982;15.248;2023-09-08T09:47:03;97779.75;;;25.67;64.08
13867;BME280;7003;46.982;15.248;2023-09-08T09:49:31;97778.69;;;25.88;69.43
13867;BME280;7003;46.982;15.248;2023-09-08T09:51:58;97782.38;;;25.41;65.64
13867;BME280;7003;46.982;15.248;2023-09-08T09:54:28;97783.94;;;25.42;67.26
13867;BME280;7003;46.982;15.248;2023-09-08T09:56:56;97772.91;;;25.52;70.39
13867;BME280;7003;46.982;15.248;2023-09-08T09:59:27;97773.63;;;25.60;67.87
13867;BME280;7003;46.982;15.248;2023-09-08T10:01:58;97773.63;;;25.60;68.00
13867;BME280;7003;46.982;15.248;2023-09-08T10:04:26;97776.84;;;26.09;67.25
13867;BME280;7003;46.982;15.248;2023-09-08T10:06:57;97774.84;;;26.13;57.72
13867;BME280;7003;46.982;15.248;2023-09-08T10:09:25;97770.81;;;26.48;62.19
13867;BME280;7003;46.982;15.248;2023-09-08T10:11:54;97767.44;;;26.63;62.43
13867;BME280;7003;46.982;15.248;2023-09-08T10:14:28;97766.56;;;26.70;57.70
13867;BME280;7003;46.982;15.248;2023-09-08T10:17:01;97764.66;;;26.43;54.34
13867;BME280;7003;46.982;15.248;2023-09-08T10:19:31;97755.66;;;26.47;54.62
13867;BME280;7003;46.982;15.248;2023-09-08T10:22:04;97748.41;;;26.36;57.10
13867;BME280;7003;46.982;15.248;2023-09-08T10:24:34;97744.00;;;26.42;52.59
13867;BME280;7003;46.982;15.248;2023-09-08T10:27:08;97741.03;;;26.57;57.51
13867;BME280;7003;46.982;15.248;2023-09-08T10:29:37;97739.97;;;26.74;60.29
13867;BME280;7003;46.982;15.248;2023-09-08T10:32:06;97750.13;;;26.50;58.25
13867;BME280;7003;46.982;15.248;2023-09-08T10:34:40;97737.91;;;26.58;58.99
13867;BME280;7003;46.982;15.248;2023-09-08T10:37:18;97743.44;;;26.55;57.96
13867;BME280;7003;46.982;15.248;2023-09-08T10:39:48;97746.50;;;26.57;58.91
13867;BME280;7003;46.982;15.248;2023-09-08T10:42:20;97741.53;;;26.52;54.69
13867;BME280;7003;46.982;15.248;2023-09-08T10:45:02;97737.06;;;26.11;52.73
13867;BME280;7003;46.982;15.248;2023-09-08T10:47:56;97732.09;;;26.33;64.30
13867;BME280;7003;46.982;15.248;2023-09-08T10:50:30;97725.44;;;26.57;59.51
13867;BME280;7003;46.982;15.248;2023-09-08T10:53:06;97726.97;;;26.58;54.50
13867;BME280;7003;46.982;15.248;2023-09-08T10:55:39;97731.06;;;26.23;54.32
13867;BME280;7003;46.982;15.248;2023-09-08T10:58:11;97720.22;;;26.43;59.94
13867;BME280;7003;46.982;15.248;2023-09-08T11:00:47;97724.13;;;26.65;58.86
13867;BME280;7003;46.982;15.248;2023-09-08T11:03:26;97718.34;;;26.83;56.83
13867;BME280;7003;46.982;15.248;2023-09-08T11:05:56;97713.50;;;27.14;53.81
13867;BME280;7003;46.982;15.248;2023-09-08T11:08:26;97717.75;;;26.95;51.20
13867;BME280;7003;46.982;15.248;2023-09-08T11:10:55;97714.72;;;26.90;54.07
13867;BME280;7003;46.982;15.248;2023-09-08T11:13:22;97720.34;;;27.22;56.81
13867;BME280;7003;46.982;15.248;2023-09-08T11:15:52;97721.13;;;27.23;59.22
13867;BME280;7003;46.982;15.248;2023-09-08T11:18:26;97717.69;;;27.38;57.91
13867;BME280;7003;46.982;15.248;2023-09-08T11:20:53;97712.41;;;27.47;55.22
13867;BME280;7003;46.982;15.248;2023-09-08T11:23:24;97725.16;;;27.34;51.02
13867;BME280;7003;46.982;15.248;2023-09-08T11:25:54;97714.91;;;27.22;54.36
13867;BME280;7003;46.982;15.248;2023-09-08T11:28:22;97707.53;;;27.39;53.27
13867;BME280;7003;46.982;15.248;2023-09-08T11:30:54;97710.34;;;27.55;51.48
13867;BME280;7003;46.982;15.248;2023-09-08T11:33:24;97706.41;;;27.56;51.01
13867;BME280;7003;46.982;15.248;2023-09-08T11:35:53;97707.97;;;27.73;49.48
13867;BME280;7003;46.982;15.248;2023-09-08T11:38:26;97714.03;;;27.45;50.51
13867;BME280;7003;46.982;15.248;2023-09-08T11:40:58;97714.25;;;27.54;48.29
13867;BME280;7003;46.982;15.248;2023-09-08T11:43:29;97705.94;;;27.77;49.47
13867;BME280;7003;46.982;15.248;2023-09-08T11:46:00;97700.81;;;27.79;47.24
13867;BME280;7003;46.982;15.248;2023-09-08T11:48:31;97711.97;;;27.69;47.41
13867;BME280;7003;46.982;15.248;2023-09-08T11:51:02;97703.81;;;27.85;49.93
13867;BME280;7003;46.982;15.248;2023-09-08T11:53:31;97709.63;;;27.87;45.76
13867;BME280;7003;46.982;15.248;2023-09-08T11:55:59;97698.22;;;27.72;51.20
13867;BME280;7003;46.982;15.248;2023-09-08T11:58:29;97690.81;;;27.89;49.06
13867;BME280;7003;46.982;15.248;2023-09-08T12:01:02;97699.66;;;27.61;49.64
13867;BME280;7003;46.982;15.248;2023-09-08T12:03:33;97694.13;;;27.80;51.33
13867;BME280;7003;46.982;15.248;2023-09-08T12:06:01;97685.94;;;27.80;47.73
13867;BME280;7003;46.982;15.248;2023-09-08T12:08:29;97686.03;;;28.09;46.82
13867;BME280;7003;46.982;15.248;2023-09-08T12:10:57;97677.13;;;27.89;44.16
13867;BME280;7003;46.982;15.248;2023-09-08T12:13:27;97674.34;;;28.09;50.54
13867;BME280;7003;46.982;15.248;2023-09-08T12:15:55;97678.19;;;27.95;46.34
13867;BME280;7003;46.982;15.248;2023-09-08T12:18:37;97683.00;;;27.55;44.49
13867;BME280;7003;46.982;15.248;2023-09-08T12:21:05;97682.81;;;27.26;45.14
13867;BME280;7003;46.982;15.248;2023-09-08T12:23:33;97676.97;;;27.44;46.28
13867;BME280;7003;46.982;15.248;2023-09-08T12:26:01;97673.56;;;27.76;51.25
13867;BME280;7003;46.982;15.248;2023-09-08T12:28:31;97668.00;;;27.95;46.89
13867;BME280;7003;46.982;15.248;2023-09-08T12:31:02;97667.56;;;28.13;48.44
13867;BME280;7003;46.982;15.248;2023-09-08T12:33:31;97659.03;;;28.11;50.03
13867;BME280;7003;46.982;15.248;2023-09-08T12:35:58;97657.00;;;28.15;46.83
13867;BME280;7003;46.982;15.248;2023-09-08T12:38:30;97663.59;;;28.18;48.68
13867;BME280;7003;46.982;15.248;2023-09-08T12:40:58;97658.94;;;28.15;46.21
13867;BME280;7003;46.982;15.248;2023-09-08T12:43:28;97658.25;;;28.27;45.22
13867;BME280;7003;46.982;15.248;2023-09-08T12:45:56;97656.47;;;28.37;47.42
13867;BME280;7003;46.982;15.248;2023-09-08T12:48:25;97659.50;;;28.55;46.51
13867;BME280;7003;46.982;15.248;2023-09-08T12:50:54;97654.69;;;28.59;45.14
13867;BME280;7003;46.982;15.248;2023-09-08T12:53:24;97655.25;;;28.38;45.54
13867;BME280;7003;46.982;15.248;2023-09-08T12:55:51;97657.84;;;28.57;49.49
13867;BME280;7003;46.982;15.248;2023-09-08T12:58:19;97652.66;;;28.63;47.93
13867;BME280;7003;46.982;15.248;2023-09-08T13:00:47;97653.13;;;28.29;49.67
13867;BME280;7003;46.982;15.248;2023-09-08T13:03:17;97639.81;;;27.99;46.62
13867;BME280;7003;46.982;15.248;2023-09-08T13:05:44;97643.97;;;28.03;49.85